createdAt,value
2022-12-11T00:00:34.065Z,-2.8
2022-12-11T00:01:37.202Z,-2.7
2022-12-11T00:02:39.697Z,-2.8
2022-12-11T00:03:43.111Z,-2.8
2022-12-11T00:04:46.604Z,-2.8
2022-12-11T00:05:49.698Z,-2.9
2022-12-11T00:06:53.231Z,-2.9
2022-12-11T00:07:56.260Z,-2.9
2022-12-11T00:08:59.111Z,-2.9
2022-12-11T00:10:01.335Z,-2.9
2022-12-11T00:11:04.687Z,-2.9
2022-12-11T00:12:07.540Z,-2.8
2022-12-11T00:13:10.027Z,-2.8
2022-12-11T00:14:12.524Z,-2.9
2022-12-11T00:15:15.377Z,-2.9
2022-12-11T00:16:28.095Z,-2.9
2022-12-11T00:17:30.890Z,-2.9
2022-12-11T00:18:34.043Z,-3
2022-12-11T00:19:37.475Z,-3
2022-12-11T00:20:40.199Z,-3
2022-12-11T00:21:43.291Z,-3
2022-12-11T00:22:47.130Z,-3
2022-12-11T00:23:50.189Z,-3
2022-12-11T00:24:53.443Z,-3
2022-12-11T00:25:57.148Z,-3
2022-12-11T00:27:00.211Z,-3.1
2022-12-11T00:28:03.021Z,-3.1
2022-12-11T00:29:05.892Z,-3.1
2022-12-11T00:30:08.875Z,-3.2
2022-12-11T00:31:11.576Z,-3.2
2022-12-11T00:32:14.715Z,-3.2
2022-12-11T00:33:17.542Z,-3.2
2022-12-11T00:34:20.317Z,-3.2
2022-12-11T00:35:22.751Z,-3.2
2022-12-11T00:36:25.630Z,-3.2
2022-12-11T00:37:29.131Z,-3.2
2022-12-11T00:38:33.072Z,-3.2
2022-12-11T00:39:35.758Z,-3.1
2022-12-11T00:40:38.766Z,-3.2
2022-12-11T00:41:41.807Z,-3.2
2022-12-11T00:42:44.010Z,-3.2
2022-12-11T00:43:46.775Z,-3.2
2022-12-11T00:44:49.822Z,-3.2
2022-12-11T00:45:53.597Z,-3.2
2022-12-11T00:46:56.648Z,-3.2
2022-12-11T00:47:59.441Z,-3.2
2022-12-11T00:49:01.952Z,-3.2
2022-12-11T00:50:04.923Z,-3.2
2022-12-11T00:51:07.765Z,-3.2
2022-12-11T00:52:11.110Z,-3.2
2022-12-11T00:53:14.131Z,-3.2
2022-12-11T00:54:17.992Z,-3.2
2022-12-11T00:55:21.415Z,-3.3
2022-12-11T00:56:23.571Z,-3.3
2022-12-11T00:57:26.140Z,-3.3
2022-12-11T00:58:28.642Z,-3.3
2022-12-11T00:59:31.915Z,-3.4
2022-12-11T01:00:34.974Z,-3.4
2022-12-11T01:01:38.137Z,-3.4
2022-12-11T01:02:41.169Z,-3.4
2022-12-11T01:03:44.895Z,-3.4
2022-12-11T01:04:47.318Z,-3.4
2022-12-11T01:05:48.894Z,-3.4
2022-12-11T01:06:51.701Z,-3.5
2022-12-11T01:07:55.139Z,-3.5
2022-12-11T01:08:58.265Z,-3.5
2022-12-11T01:10:01.553Z,-3.6
2022-12-11T01:11:04.590Z,-3.6
2022-12-11T01:12:07.014Z,-3.6
2022-12-11T01:13:10.420Z,-3.6
2022-12-11T01:14:13.483Z,-3.7
2022-12-11T01:15:16.533Z,-3.7
2022-12-11T01:16:19.465Z,-3.7
2022-12-11T01:17:22.524Z,-3.8
2022-12-11T01:18:25.645Z,-3.8
2022-12-11T01:19:28.168Z,-3.8
2022-12-11T01:20:30.385Z,-3.9
2022-12-11T01:21:32.967Z,-3.9
2022-12-11T01:22:36.354Z,-4
2022-12-11T01:23:39.494Z,-4
2022-12-11T01:24:42.689Z,-4
2022-12-11T01:25:46.256Z,-4
2022-12-11T01:26:49.101Z,-4
2022-12-11T01:27:51.401Z,-4
2022-12-11T01:28:54.450Z,-4.1
2022-12-11T01:29:56.939Z,-4.1
2022-12-11T01:31:00.222Z,-4.1
2022-12-11T01:32:02.892Z,-4.1
2022-12-11T01:33:06.399Z,-4.1
2022-12-11T01:34:09.652Z,-4.2
2022-12-11T01:35:13.931Z,-4.2
2022-12-11T01:36:16.130Z,-4.2
2022-12-11T01:37:19.196Z,-4.2
2022-12-11T01:38:21.906Z,-4.2
2022-12-11T01:39:24.908Z,-4.2
2022-12-11T01:40:27.957Z,-4.2
2022-12-11T01:41:31.028Z,-4.3
2022-12-11T01:42:34.924Z,-4.3
2022-12-11T01:43:38.643Z,-4.3
2022-12-11T01:44:41.899Z,-4.3
2022-12-11T01:45:44.973Z,-4.3
2022-12-11T01:46:47.744Z,-4.3
2022-12-11T01:47:50.591Z,-4.3
2022-12-11T01:48:53.356Z,-4.4
2022-12-11T01:49:56.759Z,-4.4
2022-12-11T01:51:00.187Z,-4.4
2022-12-11T01:52:03.345Z,-4.4
2022-12-11T01:53:05.842Z,-4.4
2022-12-11T01:54:08.827Z,-4.5
2022-12-11T01:55:13.781Z,-4.5
2022-12-11T01:56:16.658Z,-4.5
2022-12-11T01:57:18.802Z,-4.5
2022-12-11T01:58:22.237Z,-4.5
2022-12-11T01:59:25.406Z,-4.5
2022-12-11T02:00:28.744Z,-4.5
2022-12-11T02:01:32.212Z,-4.6
2022-12-11T02:02:35.780Z,-4.6
2022-12-11T02:03:38.997Z,-4.6
2022-12-11T02:04:42.626Z,-4.6
2022-12-11T02:05:45.119Z,-4.6
2022-12-11T02:06:48.265Z,-4.6
2022-12-11T02:07:51.949Z,-4.6
2022-12-11T02:08:55.182Z,-4.6
2022-12-11T02:09:57.943Z,-4.7
2022-12-11T02:11:00.453Z,-4.6
2022-12-11T02:12:02.324Z,-4.7
2022-12-11T02:13:05.377Z,-4.7
2022-12-11T02:14:08.599Z,-4.7
2022-12-11T02:15:13.710Z,-4.7
2022-12-11T02:16:17.081Z,-4.7
2022-12-11T02:17:20.213Z,-4.7
2022-12-11T02:18:22.718Z,-4.7
2022-12-11T02:19:25.495Z,-4.7
2022-12-11T02:20:28.185Z,-4.7
2022-12-11T02:21:30.877Z,-4.7
2022-12-11T02:22:33.848Z,-4.7
2022-12-11T02:23:36.816Z,-4.8
2022-12-11T02:24:39.969Z,-4.7
2022-12-11T02:25:42.663Z,-4.7
2022-12-11T02:26:45.812Z,-4.8
2022-12-11T02:27:48.231Z,-4.8
2022-12-11T02:28:51.672Z,-4.8
2022-12-11T02:29:55.098Z,-4.8
2022-12-11T02:30:58.928Z,-4.8
2022-12-11T02:32:02.102Z,-4.8
2022-12-11T02:33:05.448Z,-4.8
2022-12-11T02:34:08.228Z,-4.8
2022-12-11T02:35:13.017Z,-4.8
2022-12-11T02:36:15.622Z,-4.8
2022-12-11T02:37:18.699Z,-4.8
2022-12-11T02:38:21.676Z,-4.8
2022-12-11T02:39:24.172Z,-4.8
2022-12-11T02:40:26.949Z,-4.9
2022-12-11T02:41:30.142Z,-4.9
2022-12-11T02:42:33.899Z,-4.9
2022-12-11T02:43:36.875Z,-4.9
2022-12-11T02:44:40.002Z,-4.9
2022-12-11T02:45:43.543Z,-5
2022-12-11T02:46:47.078Z,-5
2022-12-11T02:47:50.053Z,-5
2022-12-11T02:48:53.107Z,-5
2022-12-11T02:49:56.353Z,-5
2022-12-11T02:50:58.795Z,-5.1
2022-12-11T02:52:01.018Z,-5.1
2022-12-11T02:53:03.519Z,-5.1
2022-12-11T02:54:06.660Z,-5.1
2022-12-11T02:55:11.509Z,-5.1
2022-12-11T02:56:14.460Z,-5.1
2022-12-11T02:57:17.171Z,-5.1
2022-12-11T02:58:20.252Z,-5.1
2022-12-11T02:59:22.855Z,-5.1
2022-12-11T03:00:26.171Z,-5.1
2022-12-11T03:01:30.076Z,-5.1
2022-12-11T03:02:40.294Z,-5.1
2022-12-11T03:03:43.517Z,-5.1
2022-12-11T03:04:46.766Z,-5.1
2022-12-11T03:05:49.262Z,-5.1
2022-12-11T03:06:51.787Z,-5.1
2022-12-11T03:07:54.876Z,-5.1
2022-12-11T03:08:58.251Z,-5.1
2022-12-11T03:10:00.836Z,-5.2
2022-12-11T03:11:03.607Z,-5.2
2022-12-11T03:12:06.758Z,-5.2
2022-12-11T03:13:10.080Z,-5.2
2022-12-11T03:14:13.516Z,-5.2
2022-12-11T03:15:16.285Z,-5.2
2022-12-11T03:16:19.311Z,-5.2
2022-12-11T03:17:22.818Z,-5.2
2022-12-11T03:18:25.900Z,-5.2
2022-12-11T03:19:29.578Z,-5.3
2022-12-11T03:20:32.638Z,-5.3
2022-12-11T03:21:35.960Z,-5.3
2022-12-11T03:22:39.012Z,-5.3
2022-12-11T03:23:43.005Z,-5.3
2022-12-11T03:24:45.500Z,-5.3
2022-12-11T03:25:49.106Z,-5.3
2022-12-11T03:27:04.483Z,-5.3
2022-12-11T03:28:13.391Z,-5.3
2022-12-11T03:29:16.473Z,-5.3
2022-12-11T03:30:18.424Z,-5.3
2022-12-11T03:31:21.572Z,-5.4
2022-12-11T03:32:25.414Z,-5.4
2022-12-11T03:33:29.428Z,-5.4
2022-12-11T03:34:32.586Z,-5.4
2022-12-11T03:35:35.559Z,-5.4
2022-12-11T03:36:38.055Z,-5.4
2022-12-11T03:37:41.577Z,-5.4
2022-12-11T03:38:43.852Z,-5.4
2022-12-11T03:39:46.552Z,-5.4
2022-12-11T03:40:49.750Z,-5.4
2022-12-11T03:41:52.886Z,-5.4
2022-12-11T03:42:55.077Z,-5.4
2022-12-11T03:43:57.815Z,-5.5
2022-12-11T03:45:01.589Z,-5.5
2022-12-11T03:46:04.840Z,-5.5
2022-12-11T03:47:08.007Z,-5.5
2022-12-11T03:48:11.195Z,-5.5
2022-12-11T03:49:14.567Z,-5.4
2022-12-11T03:50:17.902Z,-5.4
2022-12-11T03:51:20.428Z,-5.4
2022-12-11T03:52:23.882Z,-5.4
2022-12-11T03:53:27.005Z,-5.4
2022-12-11T03:54:30.353Z,-5.3
2022-12-11T03:55:33.400Z,-5.3
2022-12-11T03:56:36.629Z,-5.3
2022-12-11T03:57:39.637Z,-5.3
2022-12-11T03:58:42.731Z,-5.3
2022-12-11T03:59:45.884Z,-5.3
2022-12-11T04:00:49.018Z,-5.3
2022-12-11T04:01:52.306Z,-5.3
2022-12-11T04:02:54.864Z,-5.3
2022-12-11T04:03:58.041Z,-5.3
2022-12-11T04:05:01.792Z,-5.3
2022-12-11T04:06:04.083Z,-5.3
2022-12-11T04:07:07.238Z,-5.3
2022-12-11T04:08:09.566Z,-5.3
2022-12-11T04:09:12.762Z,-5.2
2022-12-11T04:10:16.180Z,-5.2
2022-12-11T04:11:18.481Z,-5.3
2022-12-11T04:12:20.706Z,-5.3
2022-12-11T04:13:23.839Z,-5.2
2022-12-11T04:14:26.341Z,-5.3
2022-12-11T04:15:29.213Z,-5.3
2022-12-11T04:16:32.557Z,-5.3
2022-12-11T04:17:35.400Z,-5.3
2022-12-11T04:18:39.177Z,-5.4
2022-12-11T04:19:42.396Z,-5.4
2022-12-11T04:20:45.923Z,-5.4
2022-12-11T04:21:48.230Z,-5.4
2022-12-11T04:22:50.739Z,-5.4
2022-12-11T04:23:52.963Z,-5.4
2022-12-11T04:24:55.728Z,-5.4
2022-12-11T04:25:58.287Z,-5.4
2022-12-11T04:27:00.711Z,-5.4
2022-12-11T04:28:03.488Z,-5.4
2022-12-11T04:29:06.064Z,-5.4
2022-12-11T04:30:08.756Z,-5.4
2022-12-11T04:31:12.115Z,-5.4
2022-12-11T04:32:15.072Z,-5.5
2022-12-11T04:33:17.569Z,-5.5
2022-12-11T04:34:20.069Z,-5.5
2022-12-11T04:35:23.548Z,-5.5
2022-12-11T04:36:26.927Z,-5.6
2022-12-11T04:37:30.334Z,-5.6
2022-12-11T04:38:33.103Z,-5.6
2022-12-11T04:39:36.507Z,-5.6
2022-12-11T04:40:38.927Z,-5.5
2022-12-11T04:41:41.770Z,-5.5
2022-12-11T04:42:44.569Z,-5.5
2022-12-11T04:43:47.289Z,-5.5
2022-12-11T04:44:50.342Z,-5.5
2022-12-11T04:45:52.286Z,-5.5
2022-12-11T04:46:55.547Z,-5.6
2022-12-11T04:47:58.681Z,-5.6
2022-12-11T04:49:02.004Z,-5.6
2022-12-11T04:50:05.687Z,-5.6
2022-12-11T04:51:08.820Z,-5.6
2022-12-11T04:52:11.982Z,-5.6
2022-12-11T04:53:15.031Z,-5.6
2022-12-11T04:54:18.359Z,-5.6
2022-12-11T04:55:21.063Z,-5.7
2022-12-11T04:56:24.109Z,-5.7
2022-12-11T04:57:26.981Z,-5.7
2022-12-11T04:58:30.324Z,-5.7
2022-12-11T04:59:33.122Z,-5.7
2022-12-11T05:00:35.884Z,-5.7
2022-12-11T05:01:39.219Z,-5.7
2022-12-11T05:02:42.244Z,-5.7
2022-12-11T05:03:45.357Z,-5.8
2022-12-11T05:04:48.153Z,-5.8
2022-12-11T05:05:50.930Z,-5.8
2022-12-11T05:06:54.067Z,-5.8
2022-12-11T05:07:57.428Z,-5.8
2022-12-11T05:09:01.492Z,-5.8
2022-12-11T05:10:04.248Z,-5.8
2022-12-11T05:11:06.453Z,-5.8
2022-12-11T05:12:09.141Z,-5.8
2022-12-11T05:13:11.902Z,-5.8
2022-12-11T05:14:15.304Z,-5.7
2022-12-11T05:15:18.217Z,-5.7
2022-12-11T05:16:21.256Z,-5.7
2022-12-11T05:17:24.356Z,-5.7
2022-12-11T05:18:27.609Z,-5.7
2022-12-11T05:19:31.028Z,-5.7
2022-12-11T05:20:33.729Z,-5.7
2022-12-11T05:21:36.750Z,-5.6
2022-12-11T05:22:40.656Z,-5.6
2022-12-11T05:23:44.164Z,-5.6
2022-12-11T05:24:47.573Z,-5.6
2022-12-11T05:25:50.217Z,-5.6
2022-12-11T05:26:52.897Z,-5.6
2022-12-11T05:27:55.868Z,-5.5
2022-12-11T05:28:58.725Z,-5.5
2022-12-11T05:30:01.495Z,-5.5
2022-12-11T05:31:04.299Z,-5.5
2022-12-11T05:32:07.176Z,-5.5
2022-12-11T05:33:09.400Z,-5.5
2022-12-11T05:34:12.653Z,-5.4
2022-12-11T05:35:15.664Z,-5.4
2022-12-11T05:36:18.436Z,-5.4
2022-12-11T05:37:21.135Z,-5.3
2022-12-11T05:38:24.366Z,-5.3
2022-12-11T05:39:27.831Z,-5.3
2022-12-11T05:40:30.616Z,-5.3
2022-12-11T05:41:33.746Z,-5.2
2022-12-11T05:42:36.575Z,-5.2
2022-12-11T05:43:39.541Z,-5.2
2022-12-11T05:44:42.514Z,-5.2
2022-12-11T05:45:45.632Z,-5.1
2022-12-11T05:46:49.068Z,-5.1
2022-12-11T05:47:52.487Z,-5.1
2022-12-11T05:48:55.887Z,-5
2022-12-11T05:49:58.108Z,-5
2022-12-11T05:51:00.851Z,-5
2022-12-11T05:52:03.970Z,-4.9
2022-12-11T05:53:06.534Z,-4.9
2022-12-11T05:54:10.313Z,-4.9
2022-12-11T05:55:14.712Z,-4.9
2022-12-11T05:56:18.705Z,-4.8
2022-12-11T05:57:21.484Z,-4.8
2022-12-11T05:58:24.409Z,-4.8
2022-12-11T05:59:26.346Z,-4.7
2022-12-11T06:00:37.546Z,-4.7
2022-12-11T06:01:41.162Z,-4.7
2022-12-11T06:02:45.357Z,-4.6
2022-12-11T06:03:47.971Z,-4.6
2022-12-11T06:04:50.732Z,-4.6
2022-12-11T06:05:53.946Z,-4.5
2022-12-11T06:06:57.016Z,-4.5
2022-12-11T06:08:00.810Z,-4.5
2022-12-11T06:09:03.520Z,-4.5
2022-12-11T06:10:06.579Z,-4.4
2022-12-11T06:11:09.383Z,-4.4
2022-12-11T06:12:12.786Z,-4.4
2022-12-11T06:13:16.199Z,-4.4
2022-12-11T06:14:18.973Z,-4.4
2022-12-11T06:15:21.401Z,-4.5
2022-12-11T06:16:24.313Z,-4.5
2022-12-11T06:17:26.399Z,-4.5
2022-12-11T06:18:29.342Z,-4.5
2022-12-11T06:19:38.737Z,-4.5
2022-12-11T06:20:41.789Z,-4.5
2022-12-11T06:21:44.553Z,-4.5
2022-12-11T06:22:47.408Z,-4.5
2022-12-11T06:23:49.909Z,-4.5
2022-12-11T06:24:52.345Z,-4.5
2022-12-11T06:25:55.608Z,-4.5
2022-12-11T06:26:58.984Z,-4.5
2022-12-11T06:28:02.135Z,-4.5
2022-12-11T06:29:13.978Z,-4.5
2022-12-11T06:30:17.630Z,-4.5
2022-12-11T06:31:21.168Z,-4.5
2022-12-11T06:32:24.760Z,-4.4
2022-12-11T06:33:27.810Z,-4.4
2022-12-11T06:34:30.572Z,-4.4
2022-12-11T06:35:43.038Z,-4.4
2022-12-11T06:36:45.745Z,-4.3
2022-12-11T06:37:49.743Z,-4.3
2022-12-11T06:38:52.314Z,-4.2
2022-12-11T06:39:56.008Z,-4.2
2022-12-11T06:40:59.125Z,-4.2
2022-12-11T06:42:02.012Z,-4.2
2022-12-11T06:43:05.786Z,-4.2
2022-12-11T06:44:09.133Z,-4.2
2022-12-11T06:45:13.942Z,-4.1
2022-12-11T06:46:17.350Z,-4.1
2022-12-11T06:47:20.593Z,-4.1
2022-12-11T06:48:23.371Z,-4.1
2022-12-11T06:49:25.521Z,-4.1
2022-12-11T06:50:28.584Z,-4.1
2022-12-11T06:51:31.577Z,-4.1
2022-12-11T06:52:34.264Z,-4.1
2022-12-11T06:53:37.963Z,-4.1
2022-12-11T06:54:40.523Z,-4.1
2022-12-11T06:55:43.008Z,-4.1
2022-12-11T06:56:46.206Z,-4.1
2022-12-11T06:57:49.305Z,-4.1
2022-12-11T06:58:52.747Z,-4.1
2022-12-11T06:59:55.910Z,-4
2022-12-11T07:00:58.429Z,-4
2022-12-11T07:02:01.814Z,-4
2022-12-11T07:03:05.182Z,-4
2022-12-11T07:04:07.968Z,-4
2022-12-11T07:05:12.567Z,-4
2022-12-11T07:06:16.267Z,-4
2022-12-11T07:07:19.600Z,-4
2022-12-11T07:08:22.445Z,-3.9
2022-12-11T07:09:25.416Z,-3.9
2022-12-11T07:10:28.139Z,-3.9
2022-12-11T07:11:31.185Z,-3.8
2022-12-11T07:12:34.619Z,-3.8
2022-12-11T07:13:38.342Z,-3.8
2022-12-11T07:14:41.473Z,-3.8
2022-12-11T07:15:44.170Z,-3.8
2022-12-11T07:16:47.495Z,-3.8
2022-12-11T07:17:49.457Z,-3.8
2022-12-11T07:18:51.916Z,-3.8
2022-12-11T07:19:54.477Z,-3.7
2022-12-11T07:20:57.519Z,-3.7
2022-12-11T07:22:00.572Z,-3.7
2022-12-11T07:23:03.367Z,-3.7
2022-12-11T07:24:06.425Z,-3.7
2022-12-11T07:25:11.659Z,-3.7
2022-12-11T07:26:15.464Z,-3.7
2022-12-11T07:27:18.519Z,-3.7
2022-12-11T07:28:21.745Z,-3.7
2022-12-11T07:29:25.417Z,-3.7
2022-12-11T07:30:28.473Z,-3.7
2022-12-11T07:31:31.863Z,-3.6
2022-12-11T07:32:34.683Z,-3.6
2022-12-11T07:33:37.554Z,-3.6
2022-12-11T07:34:40.611Z,-3.7
2022-12-11T07:35:43.107Z,-3.7
2022-12-11T07:36:45.808Z,-3.7
2022-12-11T07:37:48.882Z,-3.6
2022-12-11T07:38:51.680Z,-3.6
2022-12-11T07:39:54.176Z,-3.6
2022-12-11T07:40:56.768Z,-3.6
2022-12-11T07:41:59.819Z,-3.6
2022-12-11T07:43:02.875Z,-3.6
2022-12-11T07:44:06.293Z,-3.6
2022-12-11T07:45:12.349Z,-3.6
2022-12-11T07:46:16.381Z,-3.6
2022-12-11T07:47:19.714Z,-3.6
2022-12-11T07:48:22.847Z,-3.5
2022-12-11T07:49:25.268Z,-3.5
2022-12-11T07:50:28.312Z,-3.5
2022-12-11T07:51:30.638Z,-3.4
2022-12-11T07:52:33.206Z,-3.4
2022-12-11T07:53:36.142Z,-3.3
2022-12-11T07:54:39.549Z,-3.3
2022-12-11T07:55:42.071Z,-3.3
2022-12-11T07:56:54.630Z,-3.3
2022-12-11T07:57:58.024Z,-3.2
2022-12-11T07:59:01.620Z,-3.2
2022-12-11T08:00:04.835Z,-3.2
2022-12-11T08:01:08.755Z,-3.2
2022-12-11T08:02:12.566Z,-3.2
2022-12-11T08:03:15.618Z,-3.2
2022-12-11T08:04:18.392Z,-3.2
2022-12-11T08:05:20.805Z,-3.2
2022-12-11T08:06:23.332Z,-3.2
2022-12-11T08:07:26.385Z,-3.1
2022-12-11T08:08:29.956Z,-3.1
2022-12-11T08:09:33.285Z,-3.1
2022-12-11T08:10:36.260Z,-3.1
2022-12-11T08:11:39.584Z,-3.1
2022-12-11T08:12:42.795Z,-3.1
2022-12-11T08:13:46.219Z,-3
2022-12-11T08:14:48.788Z,-3
2022-12-11T08:15:53.751Z,-3
2022-12-11T08:16:58.854Z,-3
2022-12-11T08:18:02.023Z,-3
2022-12-11T08:19:04.800Z,-3
2022-12-11T08:20:07.849Z,-2.9
2022-12-11T08:21:10.083Z,-2.9
2022-12-11T08:22:12.845Z,-2.9
2022-12-11T08:23:16.000Z,-2.9
2022-12-11T08:24:19.345Z,-2.9
2022-12-11T08:25:21.867Z,-2.8
2022-12-11T08:26:24.443Z,-2.8
2022-12-11T08:27:26.581Z,-2.7
2022-12-11T08:28:28.839Z,-2.6
2022-12-11T08:29:31.890Z,-2.4
2022-12-11T08:30:35.534Z,-2.2
2022-12-11T08:31:39.083Z,-2.2
2022-12-11T08:32:42.647Z,-2.2
2022-12-11T08:33:45.441Z,-2.2
2022-12-11T08:34:48.216Z,-2.2
2022-12-11T08:35:50.439Z,-2.2
2022-12-11T08:36:52.578Z,-2.3
2022-12-11T08:37:55.392Z,-2.3
2022-12-11T08:38:58.452Z,-2.4
2022-12-11T08:40:01.148Z,-2.4
2022-12-11T08:41:04.278Z,-2.4
2022-12-11T08:42:07.400Z,-2.4
2022-12-11T08:43:10.531Z,-2.4
2022-12-11T08:44:18.310Z,-2.4
2022-12-11T08:45:20.597Z,-2.4
2022-12-11T08:46:23.638Z,-2.4
2022-12-11T08:47:27.281Z,-2.3
2022-12-11T08:48:31.090Z,-2.4
2022-12-11T08:49:36.375Z,-2.4
2022-12-11T08:50:39.146Z,-2.5
2022-12-11T08:51:40.997Z,-2.5
2022-12-11T08:52:44.147Z,-2.5
2022-12-11T08:53:47.204Z,-2.5
2022-12-11T08:54:49.761Z,-2.4
2022-12-11T08:55:52.248Z,-2.4
2022-12-11T08:56:59.908Z,-2.4
2022-12-11T08:58:02.404Z,-2.4
2022-12-11T08:59:05.105Z,-2.4
2022-12-11T09:00:07.957Z,-2.4
2022-12-11T09:01:11.225Z,-2.4
2022-12-11T09:02:14.231Z,-2.4
2022-12-11T09:03:17.347Z,-2.4
2022-12-11T09:04:21.004Z,-2.4
2022-12-11T09:05:24.110Z,-2.4
2022-12-11T09:06:27.409Z,-2.4
2022-12-11T09:07:30.852Z,-2.4
2022-12-11T09:08:33.554Z,-2.3
2022-12-11T09:09:36.258Z,-2.3
2022-12-11T09:10:39.052Z,-2.3
2022-12-11T09:11:41.906Z,-2.3
2022-12-11T09:12:45.059Z,-2.3
2022-12-11T09:13:48.033Z,-2.3
2022-12-11T09:14:51.389Z,-2.3
2022-12-11T09:15:54.416Z,-2.2
2022-12-11T09:16:57.572Z,-2.2
2022-12-11T09:18:00.730Z,-2.2
2022-12-11T09:19:03.566Z,-2.2
2022-12-11T09:20:06.404Z,-2.2
2022-12-11T09:21:09.746Z,-2.2
2022-12-11T09:22:12.236Z,-2.1
2022-12-11T09:23:14.668Z,-2.1
2022-12-11T09:24:18.025Z,-2.1
2022-12-11T09:25:20.168Z,-2.1
2022-12-11T09:26:23.501Z,-2.1
2022-12-11T09:27:26.564Z,-2
2022-12-11T09:28:29.367Z,-2
2022-12-11T09:29:32.796Z,-2
2022-12-11T09:30:36.074Z,-2
2022-12-11T09:31:39.008Z,-2
2022-12-11T09:32:41.879Z,-2
2022-12-11T09:33:44.724Z,-2
2022-12-11T09:34:47.656Z,-2
2022-12-11T09:35:51.132Z,-2
2022-12-11T09:36:54.537Z,-2
2022-12-11T09:37:57.106Z,-2
2022-12-11T09:38:59.533Z,-2
2022-12-11T09:40:09.248Z,-2
2022-12-11T09:41:12.606Z,-1.9
2022-12-11T09:42:15.686Z,-1.9
2022-12-11T09:43:17.693Z,-1.8
2022-12-11T09:44:21.052Z,-1.8
2022-12-11T09:45:23.539Z,-1.8
2022-12-11T09:46:34.881Z,-1.8
2022-12-11T09:47:37.883Z,-1.8
2022-12-11T09:48:40.932Z,-1.8
2022-12-11T09:49:44.297Z,-1.8
2022-12-11T09:50:47.195Z,-1.8
2022-12-11T09:51:50.729Z,-1.8
2022-12-11T09:52:54.051Z,-1.8
2022-12-11T09:53:57.491Z,-1.8
2022-12-11T09:55:00.754Z,-1.8
2022-12-11T09:56:04.240Z,-1.8
2022-12-11T09:57:07.882Z,-1.6
2022-12-11T09:58:10.014Z,-1.6
2022-12-11T09:59:12.794Z,-1.6
2022-12-11T10:00:15.855Z,-1.5
2022-12-11T10:01:18.006Z,-1.5
2022-12-11T10:02:21.345Z,-1.5
2022-12-11T10:03:24.711Z,-1.5
2022-12-11T10:04:27.834Z,-1.4
2022-12-11T10:05:30.974Z,-1.4
2022-12-11T10:06:33.723Z,-1.4
2022-12-11T10:07:36.310Z,-1.3
2022-12-11T10:08:39.163Z,-1.3
2022-12-11T10:09:41.857Z,-1.3
2022-12-11T10:10:44.432Z,-1.3
2022-12-11T10:11:57.345Z,-1.4
2022-12-11T10:13:00.166Z,-1.4
2022-12-11T10:14:02.933Z,-1.4
2022-12-11T10:15:06.478Z,-1.3
2022-12-11T10:16:09.297Z,-1.4
2022-12-11T10:17:12.541Z,-1.3
2022-12-11T10:18:16.048Z,-1.4
2022-12-11T10:19:19.113Z,-1.4
2022-12-11T10:20:22.244Z,-1.4
2022-12-11T10:21:24.698Z,-1.4
2022-12-11T10:22:28.456Z,-1.4
2022-12-11T10:23:32.215Z,-1.4
2022-12-11T10:25:13.773Z,-1.4
2022-12-11T10:26:17.188Z,-1.3
2022-12-11T10:27:19.475Z,-1.3
2022-12-11T10:28:22.135Z,-1.3
2022-12-11T10:29:24.566Z,-1.3
2022-12-11T10:30:35.437Z,-1.3
2022-12-11T10:31:39.147Z,-1.3
2022-12-11T10:32:41.944Z,-1.3
2022-12-11T10:33:44.986Z,-1.2
2022-12-11T10:34:47.770Z,-1.2
2022-12-11T10:35:51.489Z,-1.2
2022-12-11T10:37:01.635Z,-1.2
2022-12-11T10:38:05.094Z,-1.2
2022-12-11T10:39:08.307Z,-1.2
2022-12-11T10:40:10.811Z,-1.1
2022-12-11T10:41:14.143Z,-1.1
2022-12-11T10:42:17.002Z,-1.1
2022-12-11T10:43:19.783Z,-1.1
2022-12-11T10:44:22.486Z,-1
2022-12-11T10:45:25.663Z,-1
2022-12-11T10:46:28.890Z,-1
2022-12-11T10:47:31.525Z,-0.9
2022-12-11T10:48:34.028Z,-0.9
2022-12-11T10:49:37.105Z,-0.9
2022-12-11T10:50:40.186Z,-0.9
2022-12-11T10:51:42.044Z,-0.8
2022-12-11T10:52:44.829Z,-0.8
2022-12-11T10:53:47.646Z,-0.8
2022-12-11T10:54:51.127Z,-0.8
2022-12-11T10:55:54.592Z,-0.7
2022-12-11T10:56:57.141Z,-0.8
2022-12-11T10:58:00.523Z,-0.8
2022-12-11T10:59:03.860Z,-0.8
2022-12-11T11:00:06.925Z,-0.8
2022-12-11T11:01:10.259Z,-0.8
2022-12-11T11:02:13.583Z,-0.8
2022-12-11T11:03:16.260Z,-0.8
2022-12-11T11:04:19.343Z,-0.8
2022-12-11T11:05:22.196Z,-0.9
2022-12-11T11:06:24.984Z,-0.9
2022-12-11T11:07:28.416Z,-0.9
2022-12-11T11:08:31.615Z,-0.9
2022-12-11T11:09:34.547Z,-1
2022-12-11T11:10:37.744Z,-0.9
2022-12-11T11:11:41.066Z,-0.9
2022-12-11T11:12:43.944Z,-0.9
2022-12-11T11:13:47.656Z,-0.9
2022-12-11T11:14:50.780Z,-1
2022-12-11T11:15:54.469Z,-1
2022-12-11T11:16:57.618Z,-1
2022-12-11T11:18:00.478Z,-1
2022-12-11T11:19:03.854Z,-1
2022-12-11T11:20:06.436Z,-1
2022-12-11T11:21:09.029Z,-1
2022-12-11T11:22:12.100Z,-1
2022-12-11T11:23:14.877Z,-1.1
2022-12-11T11:24:17.403Z,-1.1
2022-12-11T11:25:21.133Z,-1.1
2022-12-11T11:26:30.753Z,-1.1
2022-12-11T11:28:16.031Z,-1.1
2022-12-11T11:29:19.377Z,-1.1
2022-12-11T11:30:22.342Z,-1.1
2022-12-11T11:31:25.424Z,-1
2022-12-11T11:32:27.886Z,-1
2022-12-11T11:33:30.813Z,-1
2022-12-11T11:34:33.881Z,-1
2022-12-11T11:35:44.198Z,-1
2022-12-11T11:36:48.631Z,-1
2022-12-11T11:37:51.974Z,-0.9
2022-12-11T11:38:54.775Z,-0.9
2022-12-11T11:39:57.486Z,-0.9
2022-12-11T11:41:16.296Z,-0.9
2022-12-11T11:42:19.427Z,-0.9
2022-12-11T11:43:22.768Z,-0.9
2022-12-11T11:44:25.742Z,-0.9
2022-12-11T11:45:28.489Z,-0.9
2022-12-11T11:46:31.761Z,-0.9
2022-12-11T11:47:35.803Z,-0.9
2022-12-11T11:48:38.958Z,-0.9
2022-12-11T11:49:42.683Z,-0.9
2022-12-11T11:50:45.665Z,-0.9
2022-12-11T11:51:48.225Z,-0.9
2022-12-11T11:52:51.212Z,-0.9
2022-12-11T11:53:54.366Z,-0.9
2022-12-11T11:54:56.972Z,-0.9
2022-12-11T11:55:59.473Z,-0.9
2022-12-11T11:57:02.466Z,-0.9
2022-12-11T11:58:05.636Z,-0.9
2022-12-11T11:59:08.731Z,-1
2022-12-11T12:00:11.983Z,-0.9
2022-12-11T12:01:14.679Z,-1
2022-12-11T12:02:17.728Z,-1
2022-12-11T12:03:20.572Z,-1.1
2022-12-11T12:04:23.634Z,-1.1
2022-12-11T12:05:27.336Z,-1.1
2022-12-11T12:06:30.471Z,-1
2022-12-11T12:07:33.247Z,-1
2022-12-11T12:08:37.053Z,-1
2022-12-11T12:09:39.729Z,-1
2022-12-11T12:10:42.274Z,-1
2022-12-11T12:11:45.395Z,-1
2022-12-11T12:12:49.149Z,-0.9
2022-12-11T12:13:52.672Z,-0.9
2022-12-11T12:14:55.728Z,-0.9
2022-12-11T12:15:59.143Z,-0.9
2022-12-11T12:17:02.586Z,-0.9
2022-12-11T12:18:05.709Z,-0.9
2022-12-11T12:19:08.806Z,-0.8
2022-12-11T12:20:11.611Z,-0.8
2022-12-11T12:21:14.319Z,-0.8
2022-12-11T12:22:17.751Z,-0.8
2022-12-11T12:23:20.527Z,-0.8
2022-12-11T12:24:23.782Z,-0.8
2022-12-11T12:25:26.503Z,-0.8
2022-12-11T12:26:30.141Z,-0.9
2022-12-11T12:28:03.638Z,-0.9
2022-12-11T12:29:07.356Z,-0.8
2022-12-11T12:30:10.460Z,-0.8
2022-12-11T12:31:14.269Z,-0.8
2022-12-11T12:32:17.688Z,-0.9
2022-12-11T12:33:20.810Z,-0.9
2022-12-11T12:34:24.228Z,-0.9
2022-12-11T12:35:27.007Z,-0.9
2022-12-11T12:36:30.438Z,-0.9
2022-12-11T12:37:32.940Z,-0.9
2022-12-11T12:38:36.651Z,-0.9
2022-12-11T12:39:39.433Z,-0.9
2022-12-11T12:40:41.873Z,-0.9
2022-12-11T12:41:44.730Z,-1
2022-12-11T12:42:48.055Z,-1
2022-12-11T12:43:52.035Z,-1
2022-12-11T12:44:55.246Z,-1
2022-12-11T12:45:58.306Z,-1
2022-12-11T12:47:01.382Z,-1
2022-12-11T12:48:04.353Z,-1
2022-12-11T12:49:07.691Z,-1
2022-12-11T12:50:10.141Z,-1
2022-12-11T12:51:13.566Z,-1
2022-12-11T12:52:16.925Z,-1.1
2022-12-11T12:53:19.899Z,-1.1
2022-12-11T12:54:22.045Z,-1.2
2022-12-11T12:55:25.269Z,-1.2
2022-12-11T12:56:27.767Z,-1.2
2022-12-11T12:57:30.524Z,-1.2
2022-12-11T12:58:33.484Z,-1.2
2022-12-11T12:59:36.565Z,-1.2
2022-12-11T13:00:40.311Z,-1.2
2022-12-11T13:01:43.800Z,-1.2
2022-12-11T13:02:47.275Z,-1.2
2022-12-11T13:03:49.857Z,-1.2
2022-12-11T13:04:59.969Z,-1.2
2022-12-11T13:06:02.758Z,-1.2
2022-12-11T13:07:05.805Z,-1.2
2022-12-11T13:08:09.114Z,-1.2
2022-12-11T13:09:11.898Z,-1.2
2022-12-11T13:10:14.941Z,-1.1
2022-12-11T13:11:18.199Z,-1.2
2022-12-11T13:12:21.389Z,-1.2
2022-12-11T13:13:24.715Z,-1.2
2022-12-11T13:14:26.856Z,-1.3
2022-12-11T13:15:30.348Z,-1.3
2022-12-11T13:16:34.776Z,-1.3
2022-12-11T13:17:38.312Z,-1.3
2022-12-11T13:18:41.646Z,-1.3
2022-12-11T13:19:44.634Z,-1.3
2022-12-11T13:20:48.069Z,-1.3
2022-12-11T13:21:51.063Z,-1.3
2022-12-11T13:22:54.119Z,-1.3
2022-12-11T13:23:57.547Z,-1.4
2022-12-11T13:25:00.240Z,-1.4
2022-12-11T13:26:03.097Z,-1.4
2022-12-11T13:27:06.176Z,-1.4
2022-12-11T13:28:09.688Z,-1.4
2022-12-11T13:29:12.661Z,-1.4
2022-12-11T13:30:15.721Z,-1.4
2022-12-11T13:31:19.426Z,-1.4
2022-12-11T13:32:22.975Z,-1.4
2022-12-11T13:33:26.292Z,-1.4
2022-12-11T13:34:29.634Z,-1.4
2022-12-11T13:35:32.220Z,-1.4
2022-12-11T13:36:35.370Z,-1.4
2022-12-11T13:37:38.419Z,-1.4
2022-12-11T13:38:40.959Z,-1.4
2022-12-11T13:39:44.625Z,-1.4
2022-12-11T13:40:47.543Z,-1.5
2022-12-11T13:41:50.320Z,-1.5
2022-12-11T13:42:53.356Z,-1.5
2022-12-11T13:43:55.973Z,-1.5
2022-12-11T13:44:59.327Z,-1.6
2022-12-11T13:46:03.060Z,-1.6
2022-12-11T13:47:05.910Z,-1.5
2022-12-11T13:48:17.709Z,-1.5
2022-12-11T13:49:21.043Z,-1.5
2022-12-11T13:50:24.191Z,-1.4
2022-12-11T13:51:27.247Z,-1.4
2022-12-11T13:52:30.585Z,-1.4
2022-12-11T13:53:33.939Z,-1.4
2022-12-11T13:54:37.004Z,-1.4
2022-12-11T13:55:39.846Z,-1.4
2022-12-11T13:56:42.991Z,-1.4
2022-12-11T13:57:45.770Z,-1.4
2022-12-11T13:58:47.635Z,-1.4
2022-12-11T13:59:51.338Z,-1.4
2022-12-11T14:00:54.780Z,-1.4
2022-12-11T14:01:58.717Z,-1.4
2022-12-11T14:03:01.852Z,-1.4
2022-12-11T14:04:04.705Z,-1.4
2022-12-11T14:05:08.040Z,-1.4
2022-12-11T14:06:19.593Z,-1.4
2022-12-11T14:07:22.666Z,-1.5
2022-12-11T14:08:25.727Z,-1.5
2022-12-11T14:09:28.829Z,-1.5
2022-12-11T14:10:31.967Z,-1.5